createdAt,value
2017-09-17T00:01:13.854Z,8.10
2017-09-17T00:03:42.242Z,8.10
2017-09-17T00:06:10.634Z,8.00
2017-09-17T00:08:39.012Z,7.90
2017-09-17T00:11:07.461Z,7.90
2017-09-17T00:13:35.849Z,7.90
2017-09-17T00:16:04.226Z,7.90
2017-09-17T00:18:32.622Z,8.00
2017-09-17T00:21:00.998Z,8.10
2017-09-17T00:23:29.369Z,8.10
2017-09-17T00:25:58.531Z,8.10
2017-09-17T00:28:26.918Z,8.10
2017-09-17T00:30:55.314Z,8.10
2017-09-17T00:33:24.077Z,8.10
2017-09-17T00:35:52.458Z,8.20
2017-09-17T00:38:20.847Z,8.10
2017-09-17T00:40:49.255Z,8.10
2017-09-17T00:43:17.651Z,8.20
2017-09-17T00:45:46.789Z,8.20
2017-09-17T00:48:15.207Z,8.20
2017-09-17T00:50:43.618Z,8.20
2017-09-17T00:53:12.049Z,8.20
2017-09-17T00:55:41.009Z,8.30
2017-09-17T00:58:09.392Z,8.30
2017-09-17T01:00:37.764Z,8.40
2017-09-17T01:03:06.171Z,8.40
2017-09-17T01:05:34.540Z,8.50
2017-09-17T01:08:02.936Z,8.50
2017-09-17T01:10:31.366Z,8.50
2017-09-17T01:12:59.760Z,8.50
2017-09-17T01:15:28.134Z,8.40
2017-09-17T01:17:56.562Z,8.30
2017-09-17T01:20:24.962Z,8.20
2017-09-17T01:22:54.119Z,8.30
2017-09-17T01:25:22.594Z,8.30
2017-09-17T01:27:50.999Z,8.40
2017-09-17T01:30:19.369Z,8.30
2017-09-17T01:32:47.805Z,8.20
2017-09-17T01:35:16.178Z,8.20
2017-09-17T01:37:44.922Z,8.20
2017-09-17T01:40:13.334Z,8.30
2017-09-17T01:42:41.754Z,8.20
2017-09-17T01:45:11.006Z,8.10
2017-09-17T01:47:40.190Z,8.10
2017-09-17T01:50:09.323Z,7.90
2017-09-17T01:52:37.694Z,7.90
2017-09-17T01:55:06.107Z,7.70
2017-09-17T01:57:34.483Z,7.70
2017-09-17T02:00:02.894Z,7.70
2017-09-17T02:02:31.549Z,7.80
2017-09-17T02:04:59.926Z,7.90
2017-09-17T02:07:28.293Z,7.90
2017-09-17T02:09:56.691Z,7.90
2017-09-17T02:12:25.090Z,7.80
2017-09-17T02:14:53.467Z,7.70
2017-09-17T02:17:21.882Z,7.80
2017-09-17T02:19:50.296Z,7.80
2017-09-17T02:22:18.670Z,7.80
2017-09-17T02:24:47.104Z,7.90
2017-09-17T02:27:16.229Z,8.00
2017-09-17T02:29:44.591Z,8.00
2017-09-17T02:32:12.993Z,8.10
2017-09-17T02:34:41.362Z,8.00
2017-09-17T02:37:09.767Z,8.10
2017-09-17T02:39:38.166Z,8.00
2017-09-17T02:42:06.564Z,8.00
2017-09-17T02:44:35.701Z,8.20
2017-09-17T02:49:38.542Z,8.20
2017-09-17T02:52:06.955Z,8.30
2017-09-17T02:54:36.101Z,8.10
2017-09-17T02:57:04.509Z,8.10
2017-09-17T02:59:32.914Z,8.30
2017-09-17T03:02:02.064Z,8.20
2017-09-17T03:04:31.205Z,8.30
2017-09-17T03:07:00.391Z,8.40
2017-09-17T03:09:29.536Z,8.50
2017-09-17T03:11:57.902Z,8.50
2017-09-17T03:14:26.346Z,8.50
2017-09-17T03:16:55.850Z,8.60
2017-09-17T03:19:24.985Z,8.60
2017-09-17T03:21:53.389Z,8.60
2017-09-17T03:24:21.765Z,8.60
2017-09-17T03:26:50.154Z,8.50
2017-09-17T03:29:18.574Z,8.50
2017-09-17T03:31:46.948Z,8.50
2017-09-17T03:34:16.109Z,8.50
2017-09-17T03:36:44.514Z,8.50
2017-09-17T03:39:13.642Z,8.70
2017-09-17T03:41:42.014Z,8.70
2017-09-17T03:44:10.409Z,8.70
2017-09-17T03:46:38.771Z,8.70
2017-09-17T03:49:07.143Z,8.60
2017-09-17T03:51:35.578Z,8.50
2017-09-17T03:54:03.949Z,8.40
2017-09-17T03:56:32.336Z,8.30
2017-09-17T03:59:00.741Z,8.30
2017-09-17T04:01:29.879Z,8.30
2017-09-17T04:03:58.244Z,8.30
2017-09-17T04:06:26.666Z,8.10
2017-09-17T04:08:55.039Z,8.00
2017-09-17T04:11:23.400Z,8.10
2017-09-17T04:13:51.816Z,8.10
2017-09-17T04:16:20.186Z,8.10
2017-09-17T04:18:48.550Z,8.10
2017-09-17T04:21:16.941Z,8.00
2017-09-17T04:23:45.305Z,8.10
2017-09-17T04:26:13.666Z,8.20
2017-09-17T04:28:42.059Z,8.30
2017-09-17T04:31:10.430Z,8.30
2017-09-17T04:33:38.791Z,8.30
2017-09-17T04:36:07.218Z,8.50
2017-09-17T04:38:35.595Z,8.50
2017-09-17T04:41:03.953Z,8.50
2017-09-17T04:43:32.557Z,8.50
2017-09-17T04:46:01.694Z,8.60
2017-09-17T04:48:30.075Z,8.50
2017-09-17T04:50:58.466Z,8.60
2017-09-17T04:53:26.926Z,8.60
2017-09-17T04:55:55.314Z,8.70
2017-09-17T04:58:23.802Z,8.70
2017-09-17T05:00:52.170Z,8.70
2017-09-17T05:03:20.541Z,8.70
2017-09-17T05:05:49.147Z,8.70
2017-09-17T05:08:17.547Z,8.80
2017-09-17T05:10:45.950Z,8.80
2017-09-17T05:15:48.946Z,8.80
2017-09-17T05:18:17.377Z,8.80
2017-09-17T05:20:45.754Z,8.60
2017-09-17T05:23:14.139Z,8.50
2017-09-17T05:25:42.726Z,8.50
2017-09-17T05:28:11.103Z,8.40
2017-09-17T05:30:39.465Z,8.30
2017-09-17T05:33:07.859Z,8.30
2017-09-17T05:35:36.230Z,8.30
2017-09-17T05:38:04.623Z,8.40
2017-09-17T05:40:33.078Z,8.70
2017-09-17T05:43:01.457Z,9.00
2017-09-17T05:45:29.841Z,9.00
2017-09-17T05:47:58.303Z,9.20
2017-09-17T05:50:27.452Z,9.50
2017-09-17T05:52:55.851Z,9.50
2017-09-17T05:55:24.273Z,9.60
2017-09-17T05:57:52.782Z,9.60
2017-09-17T06:00:21.620Z,9.60
2017-09-17T06:02:50.813Z,9.60
2017-09-17T06:05:19.966Z,9.70
2017-09-17T06:07:48.341Z,9.70
2017-09-17T06:10:16.749Z,9.70
2017-09-17T06:12:45.127Z,9.80
2017-09-17T06:15:13.506Z,9.90
2017-09-17T06:17:41.982Z,9.90
2017-09-17T06:20:10.376Z,10.00
2017-09-17T06:22:38.766Z,10.20
2017-09-17T06:25:07.182Z,10.20
2017-09-17T06:27:35.555Z,9.90
2017-09-17T06:30:04.029Z,9.80
2017-09-17T06:32:32.445Z,9.80
2017-09-17T06:35:00.840Z,10.20
2017-09-17T06:37:29.211Z,10.20
2017-09-17T06:39:57.650Z,10.30
2017-09-17T06:42:26.087Z,10.40
2017-09-17T06:44:54.565Z,10.50
2017-09-17T06:47:23.792Z,10.60
2017-09-17T06:49:52.319Z,10.60
2017-09-17T06:52:20.695Z,10.70
2017-09-17T06:54:49.106Z,10.90
2017-09-17T06:57:17.484Z,11.10
2017-09-17T06:59:45.885Z,11.10
2017-09-17T07:02:15.108Z,11.00
2017-09-17T07:04:43.560Z,10.90
2017-09-17T07:07:12.730Z,11.20
2017-09-17T07:09:41.188Z,11.30
2017-09-17T07:12:09.667Z,11.40
2017-09-17T07:14:38.047Z,11.20
2017-09-17T07:17:06.456Z,11.20
2017-09-17T07:19:34.830Z,11.30
2017-09-17T07:22:03.249Z,11.60
2017-09-17T07:24:31.691Z,11.60
2017-09-17T07:27:00.229Z,11.30
2017-09-17T07:29:29.112Z,11.60
2017-09-17T07:31:57.544Z,11.40
2017-09-17T07:34:25.909Z,11.90
2017-09-17T07:36:54.364Z,11.70
2017-09-17T07:39:22.778Z,11.50
2017-09-17T07:41:51.181Z,11.50
2017-09-17T07:44:19.577Z,11.60
2017-09-17T07:46:48.010Z,11.50
2017-09-17T07:49:16.388Z,11.40
2017-09-17T07:51:44.766Z,11.20
2017-09-17T07:54:13.430Z,11.20
2017-09-17T07:56:41.806Z,11.30
2017-09-17T07:59:10.189Z,11.30
2017-09-17T08:01:38.604Z,11.70
2017-09-17T08:04:07.814Z,11.80
2017-09-17T08:06:36.226Z,11.80
2017-09-17T08:09:04.793Z,12.00
2017-09-17T08:11:33.170Z,12.00
2017-09-17T08:14:01.576Z,12.00
2017-09-17T08:16:30.325Z,12.30
2017-09-17T08:18:59.625Z,12.10
2017-09-17T08:21:28.078Z,12.10
2017-09-17T08:23:57.299Z,12.90
2017-09-17T08:26:26.487Z,12.90
2017-09-17T08:28:55.664Z,13.30
2017-09-17T08:31:24.105Z,13.30
2017-09-17T08:33:52.483Z,13.70
2017-09-17T08:36:20.859Z,14.20
2017-09-17T08:38:49.275Z,13.60
2017-09-17T08:41:17.654Z,13.80
2017-09-17T08:43:46.044Z,14.20
2017-09-17T08:46:14.455Z,14.20
2017-09-17T08:48:42.834Z,13.90
2017-09-17T08:51:11.269Z,13.80
2017-09-17T08:53:39.683Z,13.90
2017-09-17T08:56:08.831Z,13.70
2017-09-17T08:58:38.768Z,13.70
2017-09-17T09:01:07.261Z,13.40
2017-09-17T09:03:35.817Z,13.30
2017-09-17T09:06:04.215Z,13.00
2017-09-17T09:08:32.647Z,13.10
2017-09-17T09:11:01.060Z,13.30
2017-09-17T09:13:29.458Z,13.40
2017-09-17T09:15:58.699Z,13.40
2017-09-17T09:18:27.081Z,13.40
2017-09-17T09:20:55.458Z,13.50
2017-09-17T09:23:24.180Z,13.70
2017-09-17T09:25:52.565Z,13.80
2017-09-17T09:28:20.943Z,14.00
2017-09-17T09:30:49.355Z,14.10
2017-09-17T09:33:17.773Z,13.90
2017-09-17T09:35:46.147Z,14.20
2017-09-17T09:38:14.605Z,14.20
2017-09-17T09:40:43.098Z,14.40
2017-09-17T09:43:11.486Z,14.70
2017-09-17T09:45:39.985Z,15.00
2017-09-17T09:48:08.368Z,14.80
2017-09-17T09:50:36.759Z,14.90
2017-09-17T09:53:05.159Z,14.90
2017-09-17T09:55:34.332Z,15.20
2017-09-17T09:58:02.764Z,15.20
2017-09-17T10:00:31.186Z,15.10
2017-09-17T10:02:59.586Z,15.30
2017-09-17T10:05:28.741Z,16.40
2017-09-17T10:07:57.530Z,16.30
2017-09-17T10:10:25.956Z,16.30
2017-09-17T10:12:55.099Z,17.00
2017-09-17T10:15:23.543Z,17.00
2017-09-17T10:17:51.929Z,16.90
2017-09-17T10:20:20.308Z,16.80
2017-09-17T10:22:48.851Z,16.90
2017-09-17T10:25:17.243Z,17.10
2017-09-17T10:27:45.642Z,17.20
2017-09-17T10:30:14.127Z,17.20
2017-09-17T10:32:42.536Z,17.70
2017-09-17T10:35:10.954Z,17.50
2017-09-17T10:37:39.396Z,18.10
2017-09-17T10:40:08.599Z,18.50
2017-09-17T10:42:37.151Z,18.50
2017-09-17T10:45:05.689Z,18.60
2017-09-17T10:47:34.119Z,18.70
2017-09-17T10:50:02.533Z,19.40
2017-09-17T10:52:30.976Z,20.00
2017-09-17T10:54:59.365Z,20.30
2017-09-17T10:57:27.759Z,19.70
2017-09-17T10:59:56.199Z,18.40
2017-09-17T11:02:24.607Z,18.10
2017-09-17T11:04:53.895Z,17.90
2017-09-17T11:07:22.299Z,19.40
2017-09-17T11:09:50.684Z,19.40
2017-09-17T11:12:19.067Z,19.10
2017-09-17T11:14:47.626Z,19.30
2017-09-17T11:17:16.024Z,20.60
2017-09-17T11:19:44.508Z,21.10
2017-09-17T11:22:12.926Z,21.00
2017-09-17T11:24:42.071Z,20.70
2017-09-17T11:27:10.483Z,20.60
2017-09-17T11:29:39.682Z,19.70
2017-09-17T11:32:08.851Z,19.30
2017-09-17T11:34:37.458Z,19.30
2017-09-17T11:37:05.946Z,19.10
2017-09-17T11:39:34.372Z,19.10
2017-09-17T11:42:02.752Z,19.50
2017-09-17T11:44:31.314Z,20.40
2017-09-17T11:46:59.721Z,21.20
2017-09-17T11:49:28.899Z,21.80
2017-09-17T11:51:57.326Z,21.70
2017-09-17T11:54:25.733Z,21.80
2017-09-17T11:56:54.310Z,23.20
2017-09-17T11:59:23.535Z,23.40
2017-09-17T12:01:51.916Z,23.40
2017-09-17T12:04:20.343Z,23.80
2017-09-17T12:06:48.852Z,22.90
2017-09-17T12:09:18.174Z,21.70
2017-09-17T12:11:46.598Z,21.70
2017-09-17T12:14:15.905Z,21.20
2017-09-17T12:16:44.319Z,21.20
2017-09-17T12:19:13.479Z,20.50
2017-09-17T12:21:41.960Z,20.50
2017-09-17T12:24:10.367Z,20.40
2017-09-17T12:26:39.615Z,20.80
2017-09-17T12:29:08.194Z,20.70
2017-09-17T12:31:37.295Z,21.20
2017-09-17T12:34:05.690Z,20.80
2017-09-17T12:36:34.138Z,20.90
2017-09-17T12:39:02.927Z,20.60
2017-09-17T12:41:31.347Z,20.40
2017-09-17T12:43:59.775Z,20.00
2017-09-17T12:46:28.153Z,19.90
2017-09-17T12:48:56.708Z,19.40
2017-09-17T12:51:25.216Z,18.90
2017-09-17T12:53:53.680Z,19.60
2017-09-17T12:56:23.548Z,20.10
2017-09-17T12:58:52.781Z,19.90
2017-09-17T13:01:22.025Z,19.80
2017-09-17T13:03:50.512Z,19.80
2017-09-17T13:06:18.984Z,19.60
2017-09-17T13:08:47.385Z,19.20
2017-09-17T13:11:15.833Z,19.20
2017-09-17T13:13:44.516Z,19.10
2017-09-17T13:16:13.027Z,18.70
2017-09-17T13:18:41.428Z,18.40
2017-09-17T13:21:09.929Z,18.20
2017-09-17T13:23:39.259Z,16.80
2017-09-17T13:26:07.663Z,16.80
2017-09-17T13:28:36.302Z,16.60
2017-09-17T13:31:04.724Z,16.10
2017-09-17T13:33:33.235Z,16.10
2017-09-17T13:36:01.691Z,15.90
2017-09-17T13:38:30.150Z,15.70
2017-09-17T13:40:58.755Z,15.20
2017-09-17T13:43:27.289Z,14.70
2017-09-17T13:45:56.460Z,14.00
2017-09-17T13:48:24.986Z,14.00
2017-09-17T13:50:53.435Z,13.70
2017-09-17T13:53:22.597Z,13.30
2017-09-17T13:55:51.119Z,13.20
2017-09-17T13:58:20.456Z,13.10
2017-09-17T14:00:49.039Z,13.00
2017-09-17T14:03:19.351Z,12.90
2017-09-17T14:09:05.925Z,12.90
2017-09-17T14:11:34.426Z,12.90
2017-09-17T14:14:03.737Z,12.80
2017-09-17T14:16:32.215Z,12.80
2017-09-17T14:19:02.059Z,12.90
2017-09-17T14:21:30.528Z,12.80
2017-09-17T14:23:59.215Z,12.80
2017-09-17T14:26:28.220Z,12.80
2017-09-17T14:28:56.687Z,12.80
2017-09-17T14:31:25.152Z,12.60
2017-09-17T14:33:53.585Z,12.50
2017-09-17T14:36:21.967Z,12.40
2017-09-17T14:38:50.357Z,12.50
2017-09-17T14:41:18.838Z,12.60
2017-09-17T14:43:47.223Z,12.60
2017-09-17T14:46:15.606Z,12.60
2017-09-17T14:48:44.023Z,12.40
2017-09-17T14:51:12.611Z,12.50
2017-09-17T14:53:41.024Z,12.90
2017-09-17T14:56:09.426Z,13.30
2017-09-17T14:58:37.803Z,13.60
2017-09-17T15:01:06.197Z,13.80
2017-09-17T15:03:35.369Z,13.90
2017-09-17T15:06:03.743Z,13.90
2017-09-17T15:08:32.134Z,14.10
2017-09-17T15:11:00.614Z,14.40
2017-09-17T15:13:29.002Z,14.90
2017-09-17T15:15:58.275Z,15.70
2017-09-17T15:18:26.734Z,15.60
2017-09-17T15:20:55.137Z,15.90
2017-09-17T15:23:23.595Z,16.00
2017-09-17T15:25:52.015Z,16.10
2017-09-17T15:28:20.390Z,16.10
2017-09-17T15:30:48.760Z,16.30
2017-09-17T15:33:17.526Z,16.30
2017-09-17T15:35:45.906Z,16.30
2017-09-17T15:38:14.317Z,16.10
2017-09-17T15:40:43.111Z,16.00
2017-09-17T15:43:12.455Z,16.00
2017-09-17T15:45:40.851Z,16.00
2017-09-17T15:48:09.275Z,15.80
2017-09-17T15:50:38.499Z,15.60
2017-09-17T15:53:06.985Z,15.60
2017-09-17T15:55:39.308Z,15.60
2017-09-17T15:58:07.788Z,15.60
2017-09-17T16:00:36.978Z,15.70
2017-09-17T16:03:05.419Z,15.60
2017-09-17T16:05:33.813Z,15.60
2017-09-17T16:08:02.200Z,15.60
2017-09-17T16:10:30.655Z,15.70
2017-09-17T16:12:59.027Z,15.60
2017-09-17T16:15:27.402Z,15.40
2017-09-17T16:17:55.812Z,15.30
2017-09-17T16:20:24.192Z,15.30
2017-09-17T16:22:53.342Z,15.20
2017-09-17T16:25:21.793Z,15.10
2017-09-17T16:27:50.178Z,15.00
2017-09-17T16:30:18.567Z,14.90
2017-09-17T16:32:47.769Z,14.70
2017-09-17T16:35:16.921Z,14.60
2017-09-17T16:37:45.305Z,14.60
2017-09-17T16:40:14.363Z,14.70
2017-09-17T16:42:42.769Z,14.60
2017-09-17T16:45:11.247Z,14.50
2017-09-17T16:47:39.703Z,14.50
2017-09-17T16:50:08.115Z,14.40
2017-09-17T16:52:36.533Z,14.40
2017-09-17T16:55:05.802Z,14.30
2017-09-17T16:57:34.178Z,14.30
2017-09-17T17:00:02.682Z,14.20
2017-09-17T17:02:32.369Z,14.10
2017-09-17T17:05:01.620Z,14.10
2017-09-17T17:07:30.070Z,14.00
2017-09-17T17:09:59.251Z,13.90
2017-09-17T17:12:27.678Z,13.90
2017-09-17T17:14:56.080Z,13.90
2017-09-17T17:17:24.549Z,13.80
2017-09-17T17:19:53.121Z,13.80
2017-09-17T17:22:21.538Z,13.80
2017-09-17T17:24:50.086Z,13.70
2017-09-17T17:27:18.485Z,13.70
2017-09-17T17:29:47.665Z,13.40
2017-09-17T17:32:16.266Z,13.40
2017-09-17T17:34:44.663Z,13.20
2017-09-17T17:37:13.034Z,13.10
2017-09-17T17:39:41.510Z,12.90
2017-09-17T17:42:10.001Z,12.80
2017-09-17T17:44:38.415Z,12.60
2017-09-17T17:47:07.612Z,12.40
2017-09-17T17:49:36.860Z,12.30
2017-09-17T17:52:05.263Z,12.30
2017-09-17T17:54:33.674Z,12.20
2017-09-17T17:57:02.824Z,12.00
2017-09-17T17:59:31.299Z,12.00
2017-09-17T18:01:59.737Z,12.00
2017-09-17T18:04:28.132Z,11.80
2017-09-17T18:06:56.523Z,11.70
2017-09-17T18:09:24.943Z,11.80
2017-09-17T18:11:53.369Z,11.80
2017-09-17T18:14:21.782Z,11.50
2017-09-17T18:16:50.450Z,11.50
2017-09-17T18:19:18.972Z,11.40
2017-09-17T18:21:47.440Z,11.60
2017-09-17T18:24:15.874Z,11.50
2017-09-17T18:26:44.249Z,11.50
2017-09-17T18:29:12.780Z,11.40
2017-09-17T18:31:41.310Z,11.40
2017-09-17T18:34:09.718Z,11.30
2017-09-17T18:36:38.204Z,11.30
2017-09-17T18:39:06.923Z,11.20
2017-09-17T18:41:35.328Z,11.00
2017-09-17T18:44:03.758Z,10.90
2017-09-17T18:46:32.293Z,10.70
2017-09-17T18:49:00.927Z,10.80
2017-09-17T18:51:30.104Z,10.60
2017-09-17T18:53:58.656Z,10.60
2017-09-17T18:56:27.265Z,10.50
2017-09-17T18:58:55.637Z,10.40
2017-09-17T19:01:24.118Z,10.50
2017-09-17T19:03:53.444Z,10.40
2017-09-17T19:06:21.853Z,10.40
2017-09-17T19:08:51.199Z,10.30
2017-09-17T19:11:19.596Z,10.30
2017-09-17T19:13:47.976Z,10.10
2017-09-17T19:16:16.726Z,10.00
2017-09-17T19:18:45.152Z,9.90
2017-09-17T19:21:13.735Z,9.80
2017-09-17T19:23:43.070Z,9.70
2017-09-17T19:26:12.232Z,9.70
2017-09-17T19:28:41.770Z,9.70
2017-09-17T19:31:10.642Z,9.60
2017-09-17T19:33:40.082Z,9.70
2017-09-17T19:36:08.507Z,9.60
2017-09-17T19:38:37.350Z,9.80
2017-09-17T19:41:05.836Z,9.80
2017-09-17T19:43:34.498Z,9.80
2017-09-17T19:46:02.935Z,9.80
2017-09-17T19:48:31.307Z,9.80
2017-09-17T19:50:59.743Z,9.80
2017-09-17T19:53:28.973Z,9.80
2017-09-17T19:55:57.415Z,9.80
2017-09-17T19:58:26.686Z,9.80
2017-09-17T20:00:55.131Z,9.80
2017-09-17T20:03:23.502Z,9.80
2017-09-17T20:05:51.943Z,10.10
2017-09-17T20:08:21.239Z,10.10
2017-09-17T20:10:49.620Z,10.10
2017-09-17T20:13:17.990Z,10.10
2017-09-17T20:15:46.391Z,10.20
2017-09-17T20:18:15.529Z,10.20
2017-09-17T20:20:43.993Z,10.20
2017-09-17T20:23:12.421Z,10.20
2017-09-17T20:25:41.026Z,10.20
2017-09-17T20:28:10.171Z,10.20
2017-09-17T20:30:38.579Z,10.30
2017-09-17T20:33:06.958Z,10.30
2017-09-17T20:35:35.338Z,10.30
2017-09-17T20:38:03.795Z,10.20
2017-09-17T20:40:33.003Z,10.10
2017-09-17T20:43:01.389Z,10.10
2017-09-17T20:45:29.825Z,10.10
2017-09-17T20:47:58.211Z,10.10
2017-09-17T20:50:26.595Z,10.10
2017-09-17T20:52:55.027Z,10.10
2017-09-17T20:55:24.183Z,10.00
2017-09-17T20:57:52.558Z,10.00
2017-09-17T21:00:20.966Z,10.00
2017-09-17T21:02:49.329Z,9.90
2017-09-17T21:05:17.744Z,9.90
2017-09-17T21:07:46.937Z,9.60
2017-09-17T21:10:16.078Z,9.50
2017-09-17T21:12:44.491Z,9.50
2017-09-17T21:15:12.911Z,9.40
2017-09-17T21:17:41.324Z,9.60
2017-09-17T21:20:09.697Z,9.60
2017-09-17T21:22:38.120Z,9.50
2017-09-17T21:25:06.491Z,9.40
2017-09-17T21:27:34.906Z,9.30
2017-09-17T21:30:03.391Z,9.40
2017-09-17T21:32:31.769Z,9.30
2017-09-17T21:35:00.186Z,9.40
2017-09-17T21:37:28.605Z,9.40
2017-09-17T21:39:57.833Z,9.40
2017-09-17T21:42:26.236Z,9.40
2017-09-17T21:44:54.695Z,9.40
2017-09-17T21:47:23.059Z,9.40
2017-09-17T21:49:51.439Z,9.40
2017-09-17T21:52:20.023Z,9.40
2017-09-17T21:54:48.389Z,9.40
2017-09-17T21:57:17.559Z,9.30
2017-09-17T21:59:45.956Z,9.30
2017-09-17T22:02:14.346Z,9.30
2017-09-17T22:04:43.517Z,9.30
2017-09-17T22:07:11.922Z,9.30
2017-09-17T22:09:41.060Z,9.40
2017-09-17T22:12:09.443Z,9.40
2017-09-17T22:14:38.176Z,9.50
2017-09-17T22:17:07.324Z,9.70
2017-09-17T22:19:35.757Z,9.70
2017-09-17T22:22:05.023Z,9.80
2017-09-17T22:24:33.410Z,9.80
2017-09-17T22:27:01.923Z,9.70
2017-09-17T22:29:30.387Z,9.60
2017-09-17T22:31:59.518Z,9.60
2017-09-17T22:34:27.885Z,9.60
2017-09-17T22:36:56.326Z,9.70
2017-09-17T22:39:24.698Z,9.70
2017-09-17T22:41:53.077Z,9.60
2017-09-17T22:44:21.483Z,9.50
2017-09-17T22:46:50.644Z,9.40
2017-09-17T22:49:19.012Z,9.40
2017-09-17T22:51:47.459Z,9.50
2017-09-17T22:54:15.830Z,9.40
2017-09-17T22:56:44.205Z,9.50
2017-09-17T22:59:12.671Z,9.70
2017-09-17T23:01:41.870Z,9.60
2017-09-17T23:04:11.030Z,9.60
2017-09-17T23:06:39.461Z,9.60
2017-09-17T23:09:07.880Z,9.60
2017-09-17T23:11:36.268Z,9.60
2017-09-17T23:14:04.721Z,9.60
2017-09-17T23:16:33.447Z,9.50
2017-09-17T23:19:01.820Z,9.50
2017-09-17T23:21:30.272Z,9.50
2017-09-17T23:23:58.630Z,9.50
2017-09-17T23:26:27.031Z,9.50
2017-09-17T23:28:55.486Z,9.60
2017-09-17T23:31:23.904Z,9.60
2017-09-17T23:33:52.310Z,9.70
2017-09-17T23:36:20.751Z,9.70
2017-09-17T23:38:49.106Z,9.70
2017-09-17T23:41:17.483Z,9.70
2017-09-17T23:43:45.919Z,9.60
2017-09-17T23:46:14.287Z,9.60
2017-09-17T23:48:42.733Z,9.60
2017-09-17T23:51:11.167Z,9.60
2017-09-17T23:53:46.401Z,9.70
2017-09-17T23:56:14.850Z,9.70
2017-09-17T23:58:43.215Z,9.70
